Forestville, Maryland
Current Conditions -  °F | °C
As of 2:58 AM on Monday 24 Nov 2014 (Local Time) from KADW Reporting Station
Overcast Overcast  
Wind Chill: 63°   Ceiling: 800
Heat Index: 63°   Visibility: 10mi
Dew Point: 63°   Wind: 21mph
Humidity: 99%   Direction: 160°SSE
Pressure: 29.66"   Gusts: 35mph
Location:  38.84°N, 76.89°W
Report Text: KADW 240758Z AUTO 16018G30KT 10SM OVC008 17/17 A2966 RMK AO2 PK WND 17031/32 DZB0720E0727 SLP050 P0000 T01730171 $
Loading
Personal Weather Stations






























Interactive Weather Map New forecast layout! Learn more

10-Day Weather Forecast

Advertisements
Track Severe Weather on mobile